Home   Weather   Germany   Ahrensburg   Past weeks
Flag for Germany

Past Weather in Ahrensburg, Schleswig-Holstein, Germany — Yesterday and Last 2 Weeks

Currently: 41 °F. Passing clouds. (Weather station: Hamburg-Fuhlsbuettel, Germany). See more current weather

Past Weather in Ahrensburg — Graph

°F

Ahrensburg Temperature Yesterday

Maximum temperature yesterday: 43 °F (at 11:50 am)
Minimum temperature yesterday: 28 °F (at 11:50 pm)
Average temperature yesterday: 38 °F

High & Low Weather Summary for the Past Weeks

 TemperatureHumidityPressure
High66 °F (Feb 22, 2:50 pm)100% (Feb 19, 3:50 am)30.69 "Hg (Feb 19, 3:50 am)
Low23 °F (Mar 5, 6:20 am)37% (Mar 5, 2:50 pm)29.71 "Hg (Feb 18, 9:50 pm)
Average45 °F80%30.28 "Hg
* Reported Feb 18 5:20 pm — Mar 5 5:20 pm, Ahrensburg. Weather by CustomWeather, © 2021

Note: Actual official high and low records may vary slightly from our data, if they occured in-between our weather recording intervals... More about our weather records

Ahrensburg Weather History for the Previous 24 Hours

Scroll right to see more
 ConditionsComfort  
Time TempWeatherWind HumidityBarometerVisibility
5:20 pm
Fri, Mar 5
41 °FPassing clouds.10 mph49%30.39 "HgN/A
4:50 pm43 °FPassing clouds.10 mph49%30.39 "HgN/A
4:20 pm43 °FPassing clouds.10 mph49%30.36 "HgN/A
3:50 pm43 °FPassing clouds.10 mph46%30.36 "HgN/A
3:20 pm45 °FPassing clouds.10 mph39%30.36 "HgN/A
2:50 pm45 °FSunny.10 mph37%30.36 "Hg10 mi
2:20 pm45 °FPassing clouds.9 mph39%30.36 "HgN/A
1:50 pm43 °FPassing clouds.8 mph46%30.36 "HgN/A
1:20 pm43 °FPassing clouds.6 mph42%30.36 "HgN/A
12:50 pm43 °FPassing clouds.9 mph46%30.36 "HgN/A
12:20 pm43 °FPassing clouds.8 mph46%30.36 "HgN/A
11:50 am41 °FPassing clouds.7 mph49%30.36 "HgN/A
11:20 am39 °FPassing clouds.7 mph52%30.36 "HgN/A
10:50 am39 °FPassing clouds.9 mph52%30.36 "HgN/A
10:20 am37 °FPassing clouds.8 mph65%30.33 "HgN/A
9:50 am36 °FPassing clouds.5 mph65%30.33 "HgN/A
9:20 am34 °FSunny.6 mph70%30.33 "Hg10 mi
8:50 am32 °FSunny.5 mph75%30.33 "Hg10 mi
8:20 am30 °FSunny.2 mph80%30.30 "Hg10 mi
7:50 am27 °FSunny.1 mph86%30.30 "Hg10 mi
7:20 am23 °FSunny.2 mph93%30.27 "Hg10 mi
6:50 am23 °FClear.5 mph93%30.27 "Hg10 mi
6:20 am23 °FClear.7 mph93%30.27 "Hg10 mi
5:50 am27 °FClear.7 mph86%30.27 "Hg10 mi
5:20 am25 °FClear.5 mph93%30.24 "Hg10 mi
4:50 am25 °FClear.2 mph93%30.24 "Hg10 mi
4:20 am25 °FClear.3 mph93%30.24 "Hg10 mi
3:50 am28 °FClear.6 mph86%30.24 "Hg10 mi
3:20 am28 °FClear.6 mph86%30.21 "Hg10 mi
2:50 am28 °FClear.6 mph86%30.21 "Hg10 mi
2:20 am28 °FClear.7 mph86%30.21 "Hg10 mi
1:50 am28 °FClear.6 mph86%30.21 "Hg10 mi
1:20 am28 °FClear.6 mph86%30.21 "Hg10 mi
12:50 am28 °FClear.7 mph86%30.18 "Hg10 mi
12:20 am27 °FClear.6 mph86%30.18 "Hg10 mi
11:50 pm
Thu, Mar 4
28 °FClear.5 mph80%30.18 "Hg10 mi
11:20 pm30 °FPassing clouds.5 mph75%30.18 "HgN/A
10:50 pm30 °FPassing clouds.6 mph75%30.15 "HgN/A
10:20 pm32 °FPassing clouds.6 mph75%30.15 "HgN/A
9:50 pm32 °FPassing clouds.8 mph75%30.15 "HgN/A
9:20 pm34 °FPassing clouds.8 mph70%30.12 "HgN/A
8:50 pm36 °FPassing clouds.8 mph65%30.12 "HgN/A
8:20 pm37 °FPassing clouds.10 mph70%30.12 "HgN/A
7:50 pm37 °FPassing clouds.8 mph81%30.12 "HgN/A
7:20 pm37 °FPassing clouds.6 mph81%30.09 "HgN/A
6:50 pm37 °FPartly cloudy.7 mph81%30.09 "HgN/A
6:20 pm37 °FPartly cloudy.12 mph81%30.09 "HgN/A
Weather by CustomWeather, © 2021

See weather overview